RJOS(METAR)
01/24 01:00
METAR RJOS 231600Z 27006KT 230V300 9999 FEW015 SCT030 01/M01 Q1023
RMK 1CU015 3CU030 A3024=
戻る
トップページへ戻る
IMOC Co,.Ltd.